sensor_id;sensor_type;location;lat;lon;timestamp;temperature;humidity
21216;DHT22;10765;50.954;5.322;2023-03-04T00:00:17;4.10;99.90
21216;DHT22;10765;50.954;5.322;2023-03-04T00:02:44;4.20;99.90
21216;DHT22;10765;50.954;5.322;2023-03-04T00:05:11;4.40;99.90
21216;DHT22;10765;50.954;5.322;2023-03-04T00:07:37;4.40;99.90
21216;DHT22;10765;50.954;5.322;2023-03-04T00:10:05;4.50;99.90
21216;DHT22;10765;50.954;5.322;2023-03-04T00:12:34;4.60;99.90
21216;DHT22;10765;50.954;5.322;2023-03-04T00:15:01;4.50;99.90
21216;DHT22;10765;50.954;5.322;2023-03-04T00:17:28;4.30;99.90
21216;DHT22;10765;50.954;5.322;2023-03-04T00:19:56;4.40;99.90
21216;DHT22;10765;50.954;5.322;2023-03-04T00:22:23;4.50;99.90
21216;DHT22;10765;50.954;5.322;2023-03-04T00:24:50;4.30;99.90
21216;DHT22;10765;50.954;5.322;2023-03-04T00:27:17;4.40;99.90
21216;DHT22;10765;50.954;5.322;2023-03-04T00:29:45;4.50;99.90
21216;DHT22;10765;50.954;5.322;2023-03-04T00:32:12;4.60;99.90
21216;DHT22;10765;50.954;5.322;2023-03-04T00:34:40;4.60;99.90
21216;DHT22;10765;50.954;5.322;2023-03-04T00:37:07;4.50;99.90
21216;DHT22;10765;50.954;5.322;2023-03-04T00:39:34;4.40;99.90
21216;DHT22;10765;50.954;5.322;2023-03-04T00:42:01;4.60;99.90
21216;DHT22;10765;50.954;5.322;2023-03-04T00:44:28;4.70;99.90
21216;DHT22;10765;50.954;5.322;2023-03-04T00:46:56;4.70;99.90
21216;DHT22;10765;50.954;5.322;2023-03-04T00:49:23;4.80;99.90
21216;DHT22;10765;50.954;5.322;2023-03-04T00:51:50;4.80;99.90
21216;DHT22;10765;50.954;5.322;2023-03-04T00:54:17;4.80;99.90
21216;DHT22;10765;50.954;5.322;2023-03-04T00:56:44;4.80;99.90
21216;DHT22;10765;50.954;5.322;2023-03-04T00:59:11;4.90;99.90
21216;DHT22;10765;50.954;5.322;2023-03-04T01:01:38;4.80;99.90
21216;DHT22;10765;50.954;5.322;2023-03-04T01:04:06;4.70;99.90
21216;DHT22;10765;50.954;5.322;2023-03-04T01:06:33;4.70;99.90
21216;DHT22;10765;50.954;5.322;2023-03-04T01:09:00;4.50;99.90
21216;DHT22;10765;50.954;5.322;2023-03-04T01:11:27;4.50;99.90
21216;DHT22;10765;50.954;5.322;2023-03-04T01:13:54;4.70;99.90
21216;DHT22;10765;50.954;5.322;2023-03-04T01:16:21;4.80;99.90
21216;DHT22;10765;50.954;5.322;2023-03-04T01:18:47;4.70;99.90
21216;DHT22;10765;50.954;5.322;2023-03-04T01:21:16;4.80;99.90
21216;DHT22;10765;50.954;5.322;2023-03-04T01:23:43;4.90;99.90
21216;DHT22;10765;50.954;5.322;2023-03-04T01:26:09;4.80;99.90
21216;DHT22;10765;50.954;5.322;2023-03-04T01:28:36;4.80;99.90
21216;DHT22;10765;50.954;5.322;2023-03-04T01:31:04;4.80;99.90
21216;DHT22;10765;50.954;5.322;2023-03-04T01:33:31;4.60;99.90
21216;DHT22;10765;50.954;5.322;2023-03-04T01:35:58;4.40;99.90
21216;DHT22;10765;50.954;5.322;2023-03-04T01:38:26;4.50;99.90
21216;DHT22;10765;50.954;5.322;2023-03-04T01:40:53;4.60;99.90
21216;DHT22;10765;50.954;5.322;2023-03-04T01:43:22;4.80;99.90
21216;DHT22;10765;50.954;5.322;2023-03-04T01:45:50;4.90;99.90
21216;DHT22;10765;50.954;5.322;2023-03-04T01:48:19;4.90;99.90
21216;DHT22;10765;50.954;5.322;2023-03-04T01:50:47;4.90;99.90
21216;DHT22;10765;50.954;5.322;2023-03-04T01:53:19;4.80;99.90
21216;DHT22;10765;50.954;5.322;2023-03-04T01:55:48;4.80;99.90
21216;DHT22;10765;50.954;5.322;2023-03-04T01:58:15;4.60;99.90
21216;DHT22;10765;50.954;5.322;2023-03-04T02:00:42;4.50;99.90
21216;DHT22;10765;50.954;5.322;2023-03-04T02:03:11;4.30;99.90
21216;DHT22;10765;50.954;5.322;2023-03-04T02:05:42;4.50;99.90
21216;DHT22;10765;50.954;5.322;2023-03-04T02:08:11;4.70;99.90
21216;DHT22;10765;50.954;5.322;2023-03-04T02:10:41;4.80;99.90
21216;DHT22;10765;50.954;5.322;2023-03-04T02:13:10;4.90;99.90
21216;DHT22;10765;50.954;5.322;2023-03-04T02:15:37;5.00;99.90
21216;DHT22;10765;50.954;5.322;2023-03-04T02:18:11;4.90;99.90
21216;DHT22;10765;50.954;5.322;2023-03-04T02:20:47;4.90;99.90
21216;DHT22;10765;50.954;5.322;2023-03-04T02:23:18;4.80;99.90
21216;DHT22;10765;50.954;5.322;2023-03-04T02:28:26;4.90;99.90
21216;DHT22;10765;50.954;5.322;2023-03-04T02:30:53;4.90;99.90
21216;DHT22;10765;50.954;5.322;2023-03-04T02:33:20;4.80;99.90
21216;DHT22;10765;50.954;5.322;2023-03-04T02:35:47;4.70;99.90
21216;DHT22;10765;50.954;5.322;2023-03-04T02:38:14;4.70;99.90
21216;DHT22;10765;50.954;5.322;2023-03-04T02:40:44;4.80;99.90
21216;DHT22;10765;50.954;5.322;2023-03-04T02:43:12;4.90;99.90
21216;DHT22;10765;50.954;5.322;2023-03-04T02:45:43;4.80;99.90
21216;DHT22;10765;50.954;5.322;2023-03-04T02:48:11;5.00;99.90
21216;DHT22;10765;50.954;5.322;2023-03-04T02:50:41;5.20;99.90
21216;DHT22;10765;50.954;5.322;2023-03-04T02:53:09;5.20;99.90
21216;DHT22;10765;50.954;5.322;2023-03-04T02:55:36;5.10;99.90
21216;DHT22;10765;50.954;5.322;2023-03-04T02:58:03;5.10;99.90
21216;DHT22;10765;50.954;5.322;2023-03-04T03:00:30;5.00;99.90
21216;DHT22;10765;50.954;5.322;2023-03-04T03:02:59;5.00;99.90
21216;DHT22;10765;50.954;5.322;2023-03-04T03:05:27;5.20;99.90
21216;DHT22;10765;50.954;5.322;2023-03-04T03:07:54;5.20;99.90
21216;DHT22;10765;50.954;5.322;2023-03-04T03:10:22;5.20;99.90
21216;DHT22;10765;50.954;5.322;2023-03-04T03:12:49;5.30;99.90
21216;DHT22;10765;50.954;5.322;2023-03-04T03:15:16;5.20;99.90
21216;DHT22;10765;50.954;5.322;2023-03-04T03:17:43;5.30;99.90
21216;DHT22;10765;50.954;5.322;2023-03-04T03:20:13;5.30;99.90
21216;DHT22;10765;50.954;5.322;2023-03-04T03:22:41;5.30;99.90
21216;DHT22;10765;50.954;5.322;2023-03-04T03:25:10;5.50;99.90
21216;DHT22;10765;50.954;5.322;2023-03-04T03:27:37;5.60;99.90
21216;DHT22;10765;50.954;5.322;2023-03-04T03:30:06;5.60;99.90
21216;DHT22;10765;50.954;5.322;2023-03-04T03:32:33;5.60;99.90
21216;DHT22;10765;50.954;5.322;2023-03-04T03:35:00;5.60;99.90
21216;DHT22;10765;50.954;5.322;2023-03-04T03:37:28;5.50;99.90
21216;DHT22;10765;50.954;5.322;2023-03-04T03:39:55;5.40;99.90
21216;DHT22;10765;50.954;5.322;2023-03-04T03:42:22;5.40;99.90
21216;DHT22;10765;50.954;5.322;2023-03-04T03:44:49;5.40;99.90
21216;DHT22;10765;50.954;5.322;2023-03-04T03:47:16;5.30;99.90
21216;DHT22;10765;50.954;5.322;2023-03-04T03:49:43;5.20;99.90
21216;DHT22;10765;50.954;5.322;2023-03-04T03:52:09;5.40;99.90
21216;DHT22;10765;50.954;5.322;2023-03-04T03:54:38;5.50;99.90
21216;DHT22;10765;50.954;5.322;2023-03-04T03:57:05;5.60;99.90
21216;DHT22;10765;50.954;5.322;2023-03-04T03:59:32;5.80;99.90
21216;DHT22;10765;50.954;5.322;2023-03-04T04:01:59;5.70;99.90
21216;DHT22;10765;50.954;5.322;2023-03-04T04:04:26;5.60;99.90
21216;DHT22;10765;50.954;5.322;2023-03-04T04:06:52;5.50;99.90
21216;DHT22;10765;50.954;5.322;2023-03-04T04:09:19;5.20;99.90
21216;DHT22;10765;50.954;5.322;2023-03-04T04:11:48;5.20;99.90
21216;DHT22;10765;50.954;5.322;2023-03-04T04:14:14;5.30;99.90
21216;DHT22;10765;50.954;5.322;2023-03-04T04:16:41;5.30;99.90
21216;DHT22;10765;50.954;5.322;2023-03-04T04:19:15;5.40;99.90
21216;DHT22;10765;50.954;5.322;2023-03-04T04:21:42;5.40;99.90
21216;DHT22;10765;50.954;5.322;2023-03-04T04:24:09;5.50;99.90
21216;DHT22;10765;50.954;5.322;2023-03-04T04:26:36;5.60;99.90
21216;DHT22;10765;50.954;5.322;2023-03-04T04:29:04;5.70;99.90
21216;DHT22;10765;50.954;5.322;2023-03-04T04:31:31;5.60;99.90
21216;DHT22;10765;50.954;5.322;2023-03-04T04:33:58;5.80;99.90
21216;DHT22;10765;50.954;5.322;2023-03-04T04:36:25;5.70;99.90
21216;DHT22;10765;50.954;5.322;2023-03-04T04:38:52;5.60;99.90
21216;DHT22;10765;50.954;5.322;2023-03-04T04:41:22;5.40;99.90
21216;DHT22;10765;50.954;5.322;2023-03-04T04:43:49;5.20;99.90
21216;DHT22;10765;50.954;5.322;2023-03-04T04:46:17;5.20;99.90
21216;DHT22;10765;50.954;5.322;2023-03-04T04:48:45;5.20;99.90
21216;DHT22;10765;50.954;5.322;2023-03-04T04:51:12;5.10;99.90
21216;DHT22;10765;50.954;5.322;2023-03-04T04:53:39;5.00;99.90
21216;DHT22;10765;50.954;5.322;2023-03-04T04:56:10;5.00;99.90
21216;DHT22;10765;50.954;5.322;2023-03-04T04:58:37;4.90;99.90
21216;DHT22;10765;50.954;5.322;2023-03-04T05:01:04;4.90;99.90
21216;DHT22;10765;50.954;5.322;2023-03-04T05:03:34;4.90;99.90
21216;DHT22;10765;50.954;5.322;2023-03-04T05:06:01;4.90;99.90
21216;DHT22;10765;50.954;5.322;2023-03-04T05:08:29;4.80;99.90
21216;DHT22;10765;50.954;5.322;2023-03-04T05:10:55;5.00;99.90
21216;DHT22;10765;50.954;5.322;2023-03-04T05:13:22;5.10;99.90
21216;DHT22;10765;50.954;5.322;2023-03-04T05:15:51;5.30;99.90
21216;DHT22;10765;50.954;5.322;2023-03-04T05:18:18;5.40;99.90
21216;DHT22;10765;50.954;5.322;2023-03-04T05:20:49;5.40;99.90
21216;DHT22;10765;50.954;5.322;2023-03-04T05:23:17;5.30;99.90
21216;DHT22;10765;50.954;5.322;2023-03-04T05:25:44;5.20;99.90
21216;DHT22;10765;50.954;5.322;2023-03-04T05:28:11;5.20;99.90
21216;DHT22;10765;50.954;5.322;2023-03-04T05:30:38;5.20;99.90
21216;DHT22;10765;50.954;5.322;2023-03-04T05:33:05;5.00;99.90
21216;DHT22;10765;50.954;5.322;2023-03-04T05:35:33;5.10;99.90
21216;DHT22;10765;50.954;5.322;2023-03-04T05:38:01;5.20;99.90
21216;DHT22;10765;50.954;5.322;2023-03-04T05:40:29;5.20;99.90
21216;DHT22;10765;50.954;5.322;2023-03-04T05:42:56;5.30;99.90
21216;DHT22;10765;50.954;5.322;2023-03-04T05:45:23;5.50;99.90
21216;DHT22;10765;50.954;5.322;2023-03-04T05:47:50;5.40;99.90
21216;DHT22;10765;50.954;5.322;2023-03-04T05:50:19;5.40;99.90
21216;DHT22;10765;50.954;5.322;2023-03-04T05:52:46;5.40;99.90
21216;DHT22;10765;50.954;5.322;2023-03-04T05:55:15;5.30;99.90
21216;DHT22;10765;50.954;5.322;2023-03-04T05:57:43;5.20;99.90
21216;DHT22;10765;50.954;5.322;2023-03-04T06:00:11;5.20;99.90
21216;DHT22;10765;50.954;5.322;2023-03-04T06:02:39;5.10;99.90
21216;DHT22;10765;50.954;5.322;2023-03-04T06:05:07;5.20;99.90
21216;DHT22;10765;50.954;5.322;2023-03-04T06:07:34;5.20;99.90
21216;DHT22;10765;50.954;5.322;2023-03-04T06:10:01;5.30;99.90
21216;DHT22;10765;50.954;5.322;2023-03-04T06:12:30;5.40;99.90
21216;DHT22;10765;50.954;5.322;2023-03-04T06:14:57;5.40;99.90
21216;DHT22;10765;50.954;5.322;2023-03-04T06:17:23;5.50;99.90
21216;DHT22;10765;50.954;5.322;2023-03-04T06:19:50;5.30;99.90
21216;DHT22;10765;50.954;5.322;2023-03-04T06:22:17;5.20;99.90
21216;DHT22;10765;50.954;5.322;2023-03-04T06:24:44;5.20;99.90
21216;DHT22;10765;50.954;5.322;2023-03-04T06:27:11;5.20;99.90
21216;DHT22;10765;50.954;5.322;2023-03-04T06:29:42;5.20;99.90
21216;DHT22;10765;50.954;5.322;2023-03-04T06:32:08;5.20;99.90
21216;DHT22;10765;50.954;5.322;2023-03-04T06:34:35;5.20;99.90
21216;DHT22;10765;50.954;5.322;2023-03-04T06:37:02;5.30;99.90
21216;DHT22;10765;50.954;5.322;2023-03-04T06:39:29;5.40;99.90
21216;DHT22;10765;50.954;5.322;2023-03-04T06:41:57;5.30;99.90
21216;DHT22;10765;50.954;5.322;2023-03-04T06:44:24;5.30;99.90
21216;DHT22;10765;50.954;5.322;2023-03-04T06:46:52;5.40;99.90
21216;DHT22;10765;50.954;5.322;2023-03-04T06:49:19;5.30;99.90
21216;DHT22;10765;50.954;5.322;2023-03-04T06:51:46;5.30;99.90
21216;DHT22;10765;50.954;5.322;2023-03-04T06:54:13;5.40;99.90
21216;DHT22;10765;50.954;5.322;2023-03-04T06:56:40;5.50;99.90
21216;DHT22;10765;50.954;5.322;2023-03-04T06:59:07;5.60;99.90
21216;DHT22;10765;50.954;5.322;2023-03-04T07:01:33;5.60;99.90
21216;DHT22;10765;50.954;5.322;2023-03-04T07:04:02;5.70;99.90
21216;DHT22;10765;50.954;5.322;2023-03-04T07:06:29;5.70;99.90
21216;DHT22;10765;50.954;5.322;2023-03-04T07:08:57;5.70;99.90
21216;DHT22;10765;50.954;5.322;2023-03-04T07:11:24;5.70;99.90
21216;DHT22;10765;50.954;5.322;2023-03-04T07:13:51;5.60;99.90
21216;DHT22;10765;50.954;5.322;2023-03-04T07:16:21;5.50;99.90
21216;DHT22;10765;50.954;5.322;2023-03-04T07:18:49;5.40;99.90
21216;DHT22;10765;50.954;5.322;2023-03-04T07:21:18;5.40;99.90
21216;DHT22;10765;50.954;5.322;2023-03-04T07:23:45;5.40;99.90
21216;DHT22;10765;50.954;5.322;2023-03-04T07:26:12;5.40;99.90
21216;DHT22;10765;50.954;5.322;2023-03-04T07:28:39;5.50;99.90
21216;DHT22;10765;50.954;5.322;2023-03-04T07:31:08;5.40;99.90
21216;DHT22;10765;50.954;5.322;2023-03-04T07:33:36;5.40;99.90
21216;DHT22;10765;50.954;5.322;2023-03-04T07:36:03;5.50;99.90
21216;DHT22;10765;50.954;5.322;2023-03-04T07:38:33;5.60;99.90
21216;DHT22;10765;50.954;5.322;2023-03-04T07:41:00;5.60;99.90
21216;DHT22;10765;50.954;5.322;2023-03-04T07:43:28;5.70;99.90
21216;DHT22;10765;50.954;5.322;2023-03-04T07:45:58;5.70;99.90
21216;DHT22;10765;50.954;5.322;2023-03-04T07:48:26;5.80;99.90
21216;DHT22;10765;50.954;5.322;2023-03-04T07:51:08;6.00;99.90
21216;DHT22;10765;50.954;5.322;2023-03-04T07:53:38;5.90;99.90
21216;DHT22;10765;50.954;5.322;2023-03-04T07:56:07;6.10;99.90
21216;DHT22;10765;50.954;5.322;2023-03-04T07:58:34;6.00;99.90
21216;DHT22;10765;50.954;5.322;2023-03-04T08:01:07;5.90;99.90
21216;DHT22;10765;50.954;5.322;2023-03-04T08:03:35;5.90;99.90
21216;DHT22;10765;50.954;5.322;2023-03-04T08:06:04;6.00;99.90
21216;DHT22;10765;50.954;5.322;2023-03-04T08:08:31;6.20;98.10
21216;DHT22;10765;50.954;5.322;2023-03-04T08:11:03;6.30;92.10
21216;DHT22;10765;50.954;5.322;2023-03-04T08:13:30;6.30;90.50
21216;DHT22;10765;50.954;5.322;2023-03-04T08:15:58;6.60;71.90
21216;DHT22;10765;50.954;5.322;2023-03-04T08:18:25;6.60;60.40
21216;DHT22;10765;50.954;5.322;2023-03-04T08:20:52;6.40;74.10
21216;DHT22;10765;50.954;5.322;2023-03-04T08:23:19;6.50;77.70
21216;DHT22;10765;50.954;5.322;2023-03-04T08:25:47;6.50;71.60
21216;DHT22;10765;50.954;5.322;2023-03-04T08:28:16;6.40;78.80
21216;DHT22;10765;50.954;5.322;2023-03-04T08:30:43;6.30;92.30
21216;DHT22;10765;50.954;5.322;2023-03-04T08:33:10;6.10;99.90
21216;DHT22;10765;50.954;5.322;2023-03-04T08:35:38;6.20;99.90
21216;DHT22;10765;50.954;5.322;2023-03-04T08:38:06;6.30;99.90
21216;DHT22;10765;50.954;5.322;2023-03-04T08:40:33;6.40;99.90
21216;DHT22;10765;50.954;5.322;2023-03-04T08:43:00;6.60;99.90
21216;DHT22;10765;50.954;5.322;2023-03-04T08:45:29;6.80;85.30
21216;DHT22;10765;50.954;5.322;2023-03-04T08:47:56;6.70;89.80
21216;DHT22;10765;50.954;5.322;2023-03-04T08:50:23;6.60;90.60
21216;DHT22;10765;50.954;5.322;2023-03-04T08:52:52;6.50;99.90
21216;DHT22;10765;50.954;5.322;2023-03-04T08:55:19;6.50;99.90
21216;DHT22;10765;50.954;5.322;2023-03-04T08:57:46;6.50;99.90
21216;DHT22;10765;50.954;5.322;2023-03-04T09:00:14;6.50;99.90
21216;DHT22;10765;50.954;5.322;2023-03-04T09:02:42;6.60;99.90
21216;DHT22;10765;50.954;5.322;2023-03-04T09:05:09;6.60;99.90
21216;DHT22;10765;50.954;5.322;2023-03-04T09:07:36;6.90;99.90
21216;DHT22;10765;50.954;5.322;2023-03-04T09:10:04;7.10;91.40
21216;DHT22;10765;50.954;5.322;2023-03-04T09:12:32;7.20;49.00
21216;DHT22;10765;50.954;5.322;2023-03-04T09:14:59;7.40;44.30
21216;DHT22;10765;50.954;5.322;2023-03-04T09:17:27;7.50;37.00
21216;DHT22;10765;50.954;5.322;2023-03-04T09:19:56;7.90;18.10
21216;DHT22;10765;50.954;5.322;2023-03-04T09:22:23;8.90;1.00
21216;DHT22;10765;50.954;5.322;2023-03-04T09:24:50;10.40;1.00
21216;DHT22;10765;50.954;5.322;2023-03-04T09:27:17;11.90;1.00
21216;DHT22;10765;50.954;5.322;2023-03-04T09:29:44;12.00;1.00
21216;DHT22;10765;50.954;5.322;2023-03-04T09:32:10;10.60;1.00
21216;DHT22;10765;50.954;5.322;2023-03-04T09:34:38;9.70;1.00
21216;DHT22;10765;50.954;5.322;2023-03-04T09:37:06;9.30;1.00
21216;DHT22;10765;50.954;5.322;2023-03-04T09:39:33;9.30;1.00
21216;DHT22;10765;50.954;5.322;2023-03-04T09:42:00;9.00;1.00
21216;DHT22;10765;50.954;5.322;2023-03-04T09:44:29;8.60;1.00
21216;DHT22;10765;50.954;5.322;2023-03-04T09:47:00;8.20;1.00
21216;DHT22;10765;50.954;5.322;2023-03-04T09:49:28;7.70;2.10
21216;DHT22;10765;50.954;5.322;2023-03-04T09:52:03;7.30;61.40
21216;DHT22;10765;50.954;5.322;2023-03-04T09:54:50;7.10;99.90
21216;DHT22;10765;50.954;5.322;2023-03-04T09:57:26;6.90;99.90
21216;DHT22;10765;50.954;5.322;2023-03-04T10:00:03;6.90;99.90
21216;DHT22;10765;50.954;5.322;2023-03-04T10:02:43;7.00;99.90
21216;DHT22;10765;50.954;5.322;2023-03-04T10:05:15;7.20;99.90
21216;DHT22;10765;50.954;5.322;2023-03-04T10:07:47;7.40;99.90
21216;DHT22;10765;50.954;5.322;2023-03-04T10:10:21;7.40;99.90
21216;DHT22;10765;50.954;5.322;2023-03-04T10:12:50;7.40;97.60
21216;DHT22;10765;50.954;5.322;2023-03-04T10:15:23;7.50;97.00
21216;DHT22;10765;50.954;5.322;2023-03-04T10:17:55;7.70;99.90
21216;DHT22;10765;50.954;5.322;2023-03-04T10:20:24;8.00;90.60
21216;DHT22;10765;50.954;5.322;2023-03-04T10:22:53;8.00;44.70
21216;DHT22;10765;50.954;5.322;2023-03-04T10:25:25;7.90;37.00
21216;DHT22;10765;50.954;5.322;2023-03-04T10:27:55;7.70;58.40
21216;DHT22;10765;50.954;5.322;2023-03-04T10:30:30;7.60;58.80
21216;DHT22;10765;50.954;5.322;2023-03-04T10:33:00;7.90;45.90
21216;DHT22;10765;50.954;5.322;2023-03-04T10:35:33;9.80;20.00
21216;DHT22;10765;50.954;5.322;2023-03-04T10:38:03;13.50;1.00
21216;DHT22;10765;50.954;5.322;2023-03-04T10:40:37;14.40;1.00
21216;DHT22;10765;50.954;5.322;2023-03-04T10:43:04;14.60;1.00
21216;DHT22;10765;50.954;5.322;2023-03-04T10:45:37;15.60;1.00
21216;DHT22;10765;50.954;5.322;2023-03-04T10:48:05;14.50;1.00
21216;DHT22;10765;50.954;5.322;2023-03-04T10:50:32;13.30;1.00
21216;DHT22;10765;50.954;5.322;2023-03-04T10:52:59;12.20;1.00
21216;DHT22;10765;50.954;5.322;2023-03-04T10:55:28;11.20;1.00
21216;DHT22;10765;50.954;5.322;2023-03-04T10:58:02;10.40;1.00
21216;DHT22;10765;50.954;5.322;2023-03-04T11:00:30;10.00;1.00
21216;DHT22;10765;50.954;5.322;2023-03-04T11:03:22;9.50;1.00
21216;DHT22;10765;50.954;5.322;2023-03-04T11:05:51;9.20;1.00
21216;DHT22;10765;50.954;5.322;2023-03-04T11:08:21;9.00;1.00
21216;DHT22;10765;50.954;5.322;2023-03-04T11:10:50;9.00;1.00
21216;DHT22;10765;50.954;5.322;2023-03-04T11:13:20;9.10;1.00
21216;DHT22;10765;50.954;5.322;2023-03-04T11:15:50;9.20;1.00
21216;DHT22;10765;50.954;5.322;2023-03-04T11:18:21;9.00;1.00
21216;DHT22;10765;50.954;5.322;2023-03-04T11:20:51;8.60;1.00
21216;DHT22;10765;50.954;5.322;2023-03-04T11:23:23;8.60;1.00
21216;DHT22;10765;50.954;5.322;2023-03-04T11:25:55;9.20;1.00
21216;DHT22;10765;50.954;5.322;2023-03-04T11:28:30;10.40;1.00
21216;DHT22;10765;50.954;5.322;2023-03-04T11:31:03;10.90;1.00
21216;DHT22;10765;50.954;5.322;2023-03-04T11:33:38;10.70;1.00
21216;DHT22;10765;50.954;5.322;2023-03-04T11:36:27;10.50;1.00
21216;DHT22;10765;50.954;5.322;2023-03-04T11:38:56;10.20;1.00
21216;DHT22;10765;50.954;5.322;2023-03-04T11:41:27;9.60;1.00
21216;DHT22;10765;50.954;5.322;2023-03-04T11:43:58;9.00;1.00
21216;DHT22;10765;50.954;5.322;2023-03-04T11:47:01;8.80;1.00
21216;DHT22;10765;50.954;5.322;2023-03-04T11:52:50;9.10;1.00
21216;DHT22;10765;50.954;5.322;2023-03-04T11:55:28;9.40;1.00
21216;DHT22;10765;50.954;5.322;2023-03-04T11:58:09;9.10;1.00
21216;DHT22;10765;50.954;5.322;2023-03-04T12:00:48;8.80;1.00
21216;DHT22;10765;50.954;5.322;2023-03-04T12:06:21;8.90;1.00
21216;DHT22;10765;50.954;5.322;2023-03-04T12:09:02;9.00;1.00
21216;DHT22;10765;50.954;5.322;2023-03-04T12:11:40;9.40;1.00
21216;DHT22;10765;50.954;5.322;2023-03-04T12:14:24;9.60;1.00
21216;DHT22;10765;50.954;5.322;2023-03-04T12:17:29;9.70;1.00
21216;DHT22;10765;50.954;5.322;2023-03-04T12:20:22;9.50;1.00
21216;DHT22;10765;50.954;5.322;2023-03-04T12:23:00;9.50;1.00
21216;DHT22;10765;50.954;5.322;2023-03-04T12:25:37;9.50;1.00
21216;DHT22;10765;50.954;5.322;2023-03-04T12:28:22;9.20;1.00
21216;DHT22;10765;50.954;5.322;2023-03-04T12:33:58;9.40;1.00
21216;DHT22;10765;50.954;5.322;2023-03-04T12:36:36;9.50;1.00
21216;DHT22;10765;50.954;5.322;2023-03-04T12:39:18;9.50;1.00
21216;DHT22;10765;50.954;5.322;2023-03-04T12:41:52;9.30;1.00
21216;DHT22;10765;50.954;5.322;2023-03-04T12:44:23;9.40;1.00
21216;DHT22;10765;50.954;5.322;2023-03-04T12:47:04;9.20;1.00
21216;DHT22;10765;50.954;5.322;2023-03-04T12:49:54;8.90;1.00
21216;DHT22;10765;50.954;5.322;2023-03-04T12:52:32;9.10;1.00
21216;DHT22;10765;50.954;5.322;2023-03-04T12:55:07;9.00;1.00
21216;DHT22;10765;50.954;5.322;2023-03-04T12:57:35;9.40;1.00
21216;DHT22;10765;50.954;5.322;2023-03-04T13:00:18;10.30;1.00
21216;DHT22;10765;50.954;5.322;2023-03-04T13:02:55;11.90;1.00
21216;DHT22;10765;50.954;5.322;2023-03-04T13:05:41;12.50;1.00
21216;DHT22;10765;50.954;5.322;2023-03-04T13:08:22;12.30;1.00
21216;DHT22;10765;50.954;5.322;2023-03-04T13:10:51;11.90;1.00
21216;DHT22;10765;50.954;5.322;2023-03-04T13:13:37;11.30;1.00
21216;DHT22;10765;50.954;5.322;2023-03-04T13:16:05;10.20;1.00
21216;DHT22;10765;50.954;5.322;2023-03-04T13:18:34;10.20;1.00
21216;DHT22;10765;50.954;5.322;2023-03-04T13:21:20;10.50;1.00
21216;DHT22;10765;50.954;5.322;2023-03-04T13:23:48;10.30;1.00
21216;DHT22;10765;50.954;5.322;2023-03-04T13:26:30;10.40;1.00
21216;DHT22;10765;50.954;5.322;2023-03-04T13:29:29;10.40;1.00
21216;DHT22;10765;50.954;5.322;2023-03-04T13:31:59;10.30;1.00
21216;DHT22;10765;50.954;5.322;2023-03-04T13:34:43;10.10;1.00
21216;DHT22;10765;50.954;5.322;2023-03-04T13:40:36;9.90;1.00
21216;DHT22;10765;50.954;5.322;2023-03-04T13:43:26;9.30;1.00
21216;DHT22;10765;50.954;5.322;2023-03-04T13:45:53;9.50;1.00
21216;DHT22;10765;50.954;5.322;2023-03-04T13:48:33;9.70;1.00
21216;DHT22;10765;50.954;5.322;2023-03-04T13:51:01;9.90;1.00
21216;DHT22;10765;50.954;5.322;2023-03-04T13:53:47;9.70;1.00
21216;DHT22;10765;50.954;5.322;2023-03-04T13:56:29;9.60;1.00
21216;DHT22;10765;50.954;5.322;2023-03-04T13:59:25;9.70;1.00
21216;DHT22;10765;50.954;5.322;2023-03-04T14:01:58;9.70;1.00
21216;DHT22;10765;50.954;5.322;2023-03-04T14:04:29;9.70;1.00
21216;DHT22;10765;50.954;5.322;2023-03-04T14:06:58;9.80;1.00
21216;DHT22;10765;50.954;5.322;2023-03-04T14:09:27;9.60;1.00
21216;DHT22;10765;50.954;5.322;2023-03-04T14:11:57;9.30;1.00
21216;DHT22;10765;50.954;5.322;2023-03-04T14:14:26;9.20;1.00
21216;DHT22;10765;50.954;5.322;2023-03-04T14:16:56;9.10;1.00
21216;DHT22;10765;50.954;5.322;2023-03-04T14:19:25;9.00;1.00
21216;DHT22;10765;50.954;5.322;2023-03-04T14:21:53;9.00;1.00
21216;DHT22;10765;50.954;5.322;2023-03-04T14:24:21;8.90;1.00
21216;DHT22;10765;50.954;5.322;2023-03-04T14:26:49;9.00;1.00
21216;DHT22;10765;50.954;5.322;2023-03-04T14:29:22;8.90;1.00
21216;DHT22;10765;50.954;5.322;2023-03-04T14:31:50;8.80;1.00
21216;DHT22;10765;50.954;5.322;2023-03-04T14:34:25;8.80;1.00
21216;DHT22;10765;50.954;5.322;2023-03-04T14:36:54;8.60;20.10
21216;DHT22;10765;50.954;5.322;2023-03-04T14:39:23;8.60;38.90
21216;DHT22;10765;50.954;5.322;2023-03-04T14:41:52;8.70;29.90
21216;DHT22;10765;50.954;5.322;2023-03-04T14:44:28;8.60;35.00
21216;DHT22;10765;50.954;5.322;2023-03-04T14:47:06;8.70;32.30
21216;DHT22;10765;50.954;5.322;2023-03-04T14:49:35;8.60;30.20
21216;DHT22;10765;50.954;5.322;2023-03-04T14:52:03;8.60;52.80
21216;DHT22;10765;50.954;5.322;2023-03-04T14:54:33;8.60;53.00
21216;DHT22;10765;50.954;5.322;2023-03-04T14:57:15;8.60;50.70
21216;DHT22;10765;50.954;5.322;2023-03-04T14:59:47;8.60;58.00
21216;DHT22;10765;50.954;5.322;2023-03-04T15:02:20;8.60;73.10
21216;DHT22;10765;50.954;5.322;2023-03-04T15:04:49;8.50;57.80
21216;DHT22;10765;50.954;5.322;2023-03-04T15:07:20;8.40;90.80
21216;DHT22;10765;50.954;5.322;2023-03-04T15:09:52;8.50;95.40
21216;DHT22;10765;50.954;5.322;2023-03-04T15:12:25;8.50;99.90
21216;DHT22;10765;50.954;5.322;2023-03-04T15:14:56;8.50;80.30
21216;DHT22;10765;50.954;5.322;2023-03-04T15:17:28;8.40;71.60
21216;DHT22;10765;50.954;5.322;2023-03-04T15:20:00;8.20;99.90
21216;DHT22;10765;50.954;5.322;2023-03-04T15:22:27;8.10;99.90
21216;DHT22;10765;50.954;5.322;2023-03-04T15:24:54;8.20;99.90
21216;DHT22;10765;50.954;5.322;2023-03-04T15:27:22;8.30;99.90
21216;DHT22;10765;50.954;5.322;2023-03-04T15:29:50;8.30;99.90
21216;DHT22;10765;50.954;5.322;2023-03-04T15:32:22;8.20;99.90
21216;DHT22;10765;50.954;5.322;2023-03-04T15:34:49;8.20;99.90
21216;DHT22;10765;50.954;5.322;2023-03-04T15:37:19;8.10;99.90
21216;DHT22;10765;50.954;5.322;2023-03-04T15:39:47;8.10;99.90
21216;DHT22;10765;50.954;5.322;2023-03-04T15:42:14;8.20;99.90
21216;DHT22;10765;50.954;5.322;2023-03-04T15:44:41;8.10;99.90
21216;DHT22;10765;50.954;5.322;2023-03-04T15:47:08;8.00;99.90
21216;DHT22;10765;50.954;5.322;2023-03-04T15:49:40;8.00;99.90
21216;DHT22;10765;50.954;5.322;2023-03-04T15:52:13;7.90;99.90
21216;DHT22;10765;50.954;5.322;2023-03-04T15:54:41;7.90;99.90
21216;DHT22;10765;50.954;5.322;2023-03-04T15:57:16;7.90;99.90
21216;DHT22;10765;50.954;5.322;2023-03-04T15:59:44;8.00;99.90
21216;DHT22;10765;50.954;5.322;2023-03-04T16:02:14;8.00;99.90
21216;DHT22;10765;50.954;5.322;2023-03-04T16:04:45;8.00;99.90
21216;DHT22;10765;50.954;5.322;2023-03-04T16:07:15;8.00;99.90
21216;DHT22;10765;50.954;5.322;2023-03-04T16:09:42;7.90;99.90
21216;DHT22;10765;50.954;5.322;2023-03-04T16:12:10;7.90;99.90
21216;DHT22;10765;50.954;5.322;2023-03-04T16:14:38;7.90;99.90
21216;DHT22;10765;50.954;5.322;2023-03-04T16:17:07;7.80;99.90
21216;DHT22;10765;50.954;5.322;2023-03-04T16:19:34;7.60;99.90
21216;DHT22;10765;50.954;5.322;2023-03-04T16:22:03;7.60;99.90